Time,TemperatureF,DewpointF,PressureIn,WindDirection,WindDirectionDegrees,WindSpeedMPH,WindSpeedGustMPH,Humidity,HourlyPrecipIn,Conditions,Clouds,dailyrainin,SoftwareType,DateUTC
2013-05-15 00:01:00,74.0,50.0,30.03,SSW,201,7.0,12.0,43,0.00,,,0.00,,2013-05-15 04:01:00,
2013-05-15 00:24:00,74.0,50.0,30.03,SSW,201,7.0,12.0,43,0.00,,,0.00,,2013-05-15 04:24:00,
2013-05-15 00:33:00,74.0,50.0,30.03,SSW,201,7.0,12.0,43,0.00,,,0.00,,2013-05-15 04:33:00,
2013-05-15 00:43:00,74.0,50.0,30.03,SSW,201,7.0,12.0,43,0.00,,,0.00,,2013-05-15 04:43:00,
2013-05-15 00:52:00,74.0,50.0,30.03,SSW,201,7.0,12.0,43,0.00,,,0.00,,2013-05-15 04:52:00,
2013-05-15 02:31:00,68.0,51.0,30.06,SSW,207,0.0,5.0,55,0.00,,,0.00,,2013-05-15 06:31:00,
2013-05-15 02:52:00,68.0,51.0,30.06,SSW,207,0.0,5.0,55,0.00,,,0.00,,2013-05-15 06:52:00,
2013-05-15 03:01:00,68.0,51.0,30.06,SSW,207,0.0,5.0,55,0.00,,,0.00,,2013-05-15 07:01:00,
2013-05-15 03:11:00,68.0,51.0,30.06,SSW,207,0.0,5.0,55,0.00,,,0.00,,2013-05-15 07:11:00,
2013-05-15 03:22:00,68.0,51.0,30.06,SSW,207,0.0,5.0,55,0.00,,,0.00,,2013-05-15 07:22:00,
2013-05-15 04:42:00,67.0,56.0,30.06,SSW,201,8.0,12.0,67,0.00,,,0.00,,2013-05-15 08:42:00,
2013-05-15 04:53:00,67.0,56.0,30.06,SSW,201,8.0,12.0,67,0.00,,,0.00,,2013-05-15 08:53:00,
2013-05-15 05:01:00,67.0,56.0,30.06,SSW,201,8.0,12.0,67,0.00,,,0.00,,2013-05-15 09:01:00,
2013-05-15 05:12:00,67.0,56.0,30.06,SSW,201,8.0,12.0,67,0.00,,,0.00,,2013-05-15 09:12:00,
2013-05-15 05:21:00,66.0,53.0,30.06,WSW,253,5.0,10.0,62,0.00,,,0.00,,2013-05-15 09:21:00,
2013-05-15 05:31:00,66.0,54.0,30.09,WSW,250,0.0,7.0,66,0.00,,,0.00,,2013-05-15 09:31:00,
2013-05-15 05:33:00,66.0,53.0,30.06,WSW,253,5.0,10.0,62,0.00,,,0.00,,2013-05-15 09:33:00,
2013-05-15 05:42:00,66.0,53.0,30.06,WSW,253,5.0,10.0,62,0.00,,,0.00,,2013-05-15 09:42:00,
2013-05-15 05:53:00,66.0,54.0,30.09,WSW,250,0.0,7.0,66,0.00,,,0.00,,2013-05-15 09:53:00,
2013-05-15 06:02:00,66.0,54.0,30.09,WSW,250,0.0,7.0,66,0.00,,,0.00,,2013-05-15 10:02:00,
2013-05-15 06:13:00,66.0,54.0,30.09,WSW,250,0.0,7.0,66,0.00,,,0.00,,2013-05-15 10:13:00,
2013-05-15 06:22:00,66.0,54.0,30.09,WSW,250,0.0,7.0,66,0.00,,,0.00,,2013-05-15 10:22:00,
2013-05-15 06:53:00,65.0,55.0,30.09,WSW,245,0.0,5.0,69,0.00,,,0.00,,2013-05-15 10:53:00,
2013-05-15 07:13:00,65.0,55.0,30.09,WSW,245,0.0,5.0,69,0.00,,,0.00,,2013-05-15 11:13:00,
2013-05-15 07:19:00,65.0,55.0,30.09,WSW,245,0.0,5.0,69,0.00,,,0.00,,2013-05-15 11:19:00,
2013-05-15 07:27:00,66.0,56.0,30.12,SW,231,0.0,5.0,69,0.00,,,0.00,,2013-05-15 11:27:00,
2013-05-15 07:37:00,66.0,56.0,30.12,SW,231,0.0,5.0,69,0.00,,,0.00,,2013-05-15 11:37:00,
2013-05-15 07:50:00,66.0,56.0,30.12,SW,231,0.0,5.0,69,0.00,,,0.00,,2013-05-15 11:50:00,
2013-05-15 08:01:00,75.0,57.0,30.12,SW,229,0.0,5.0,53,0.00,,,0.00,,2013-05-15 12:01:00,
2013-05-15 10:28:00,94.0,55.0,30.15,South,188,8.0,14.0,27,0.00,,,0.00,,2013-05-15 14:28:00,
2013-05-15 10:59:00,97.0,53.0,30.15,South,186,10.0,16.0,23,0.00,,,0.00,,2013-05-15 14:59:00,
2013-05-15 13:00:00,91.0,54.0,30.12,South,184,9.0,12.0,29,0.00,,,0.00,,2013-05-15 17:00:00,
2013-05-15 13:27:00,90.0,54.0,30.09,South,180,8.0,13.0,30,0.00,,,0.00,,2013-05-15 17:27:00,
2013-05-15 14:28:00,93.0,55.0,30.09,South,188,10.0,12.0,28,0.00,,,0.00,,2013-05-15 18:28:00,
2013-05-15 15:31:00,95.0,56.0,30.06,SSW,203,5.0,12.0,27,0.00,,,0.00,,2013-05-15 19:31:00,
2013-05-15 17:00:00,103.0,54.0,30.03,South,171,5.0,13.0,20,0.00,,,0.00,,2013-05-15 21:00:00,
2013-05-15 17:28:00,106.0,54.0,30.03,South,189,11.0,13.0,18,0.00,,,0.00,,2013-05-15 21:28:00,
2013-05-15 18:30:00,101.0,52.0,30.00,South,180,8.0,12.0,20,0.00,,,0.00,,2013-05-15 22:30:00,
2013-05-15 18:59:00,92.0,50.0,30.00,South,182,4.0,13.0,24,0.00,,,0.00,,2013-05-15 22:59:00,
2013-05-15 19:01:00,91.0,50.0,30.00,South,186,8.0,13.0,25,0.00,,,0.00,,2013-05-15 23:01:00,
2013-05-15 19:28:00,91.0,50.0,30.00,South,186,8.0,13.0,25,0.00,,,0.00,,2013-05-15 23:28:00,
2013-05-15 19:38:00,91.0,50.0,30.00,South,186,8.0,13.0,25,0.00,,,0.00,,2013-05-15 23:38:00,
2013-05-15 19:50:00,91.0,50.0,30.00,South,186,8.0,13.0,25,0.00,,,0.00,,2013-05-15 23:50:00,
2013-05-15 20:27:00,86.0,51.0,29.97,South,174,4.0,11.0,30,0.00,,,0.00,,2013-05-16 00:27:00,
2013-05-15 20:37:00,86.0,51.0,29.97,South,174,4.0,11.0,30,0.00,,,0.00,,2013-05-16 00:37:00,
2013-05-15 20:52:00,82.0,52.0,30.00,South,169,5.0,8.0,36,0.00,,,0.00,,2013-05-16 00:52:00,
2013-05-15 20:58:00,82.0,52.0,30.00,South,169,5.0,8.0,36,0.00,,,0.00,,2013-05-16 00:58:00,
2013-05-15 21:01:00,80.0,52.0,30.00,SSE,160,4.0,7.0,38,0.00,,,0.00,,2013-05-16 01:01:00,
2013-05-15 21:07:00,82.0,52.0,30.00,South,169,5.0,8.0,36,0.00,,,0.00,,2013-05-16 01:07:00,
2013-05-15 21:18:00,80.0,52.0,30.00,SSE,160,4.0,7.0,38,0.00,,,0.00,,2013-05-16 01:18:00,
2013-05-15 21:30:00,80.0,52.0,30.00,SSE,160,4.0,7.0,38,0.00,,,0.00,,2013-05-16 01:30:00,
2013-05-15 21:37:00,80.0,52.0,30.00,SSE,160,4.0,7.0,38,0.00,,,0.00,,2013-05-16 01:37:00,
2013-05-15 21:49:00,80.0,52.0,30.00,SSE,160,4.0,7.0,38,0.00,,,0.00,,2013-05-16 01:49:00,
2013-05-15 22:01:00,77.0,51.0,30.00,SSW,193,3.0,6.0,41,0.00,,,0.00,,2013-05-16 02:01:00,
2013-05-15 22:29:00,77.0,51.0,30.00,SSW,193,3.0,6.0,41,0.00,,,0.00,,2013-05-16 02:29:00,
2013-05-15 22:40:00,77.0,51.0,30.00,SSW,193,3.0,6.0,41,0.00,,,0.00,,2013-05-16 02:40:00,
2013-05-15 22:48:00,77.0,51.0,30.00,SSW,193,3.0,6.0,41,0.00,,,0.00,,2013-05-16 02:48:00,
2013-05-15 22:55:00,77.0,51.0,30.00,SSW,193,3.0,6.0,41,0.00,,,0.00,,2013-05-16 02:55:00,